createdAt,value
2023-01-10T08:56:40.612Z,96851.83
2023-01-10T09:04:44.975Z,96853.14
2023-01-10T09:07:13.718Z,96859.58
2023-01-10T09:09:43.023Z,96863.00
2023-01-10T09:12:31.172Z,96866.90
2023-01-10T09:15:00.666Z,96862.23
2023-01-10T09:18:01.042Z,96861.83
2023-01-10T09:20:30.875Z,96864.02
2023-01-10T09:23:04.701Z,96865.76
2023-01-10T09:25:34.341Z,96866.73
2023-01-10T09:28:05.257Z,96866.82
2023-01-10T09:30:34.883Z,96867.64
2023-01-10T09:33:05.093Z,96861.71
2023-01-10T09:35:38.160Z,96860.30
2023-01-10T09:38:11.888Z,96864.16
2023-01-10T09:41:09.534Z,96865.92
2023-01-10T09:43:59.822Z,96864.37
2023-01-10T09:46:33.352Z,96863.12
2023-01-10T09:49:24.009Z,96858.52
2023-01-10T09:51:58.908Z,96861.36
2023-01-10T09:54:36.347Z,96868.48
2023-01-10T09:57:05.222Z,96872.64
2023-01-10T09:59:39.368Z,96877.75
2023-01-10T10:02:34.441Z,96882.48
2023-01-10T10:05:03.403Z,96886.64
2023-01-10T10:07:32.832Z,96883.99
2023-01-10T10:10:05.012Z,96885.95
2023-01-10T10:12:56.003Z,96883.31
2023-01-10T10:15:46.600Z,96880.67
2023-01-10T10:18:25.026Z,96874.70
2023-01-10T10:21:19.402Z,96880.83
2023-01-10T10:24:18.803Z,96888.37
2023-01-10T10:27:20.777Z,96894.19
2023-01-10T10:30:05.319Z,96894.20
2023-01-10T10:33:02.144Z,96889.80
2023-01-10T10:35:37.738Z,96889.42
2023-01-10T10:38:25.759Z,96890.30
2023-01-10T10:40:58.063Z,96891.68
2023-01-10T10:43:36.457Z,96894.63
2023-01-10T10:46:15.183Z,96890.77
2023-01-10T10:48:55.000Z,96893.08
2023-01-10T10:51:38.911Z,96897.05
2023-01-10T10:54:12.503Z,96898.07
2023-01-10T10:56:42.100Z,96896.27
2023-01-10T10:59:17.712Z,96899.98
2023-01-10T11:01:50.015Z,96893.34
2023-01-10T11:04:24.890Z,96887.15
2023-01-10T11:06:53.779Z,96885.34
2023-01-10T11:09:30.798Z,96881.23
2023-01-10T11:11:59.669Z,96876.30
2023-01-10T11:15:05.023Z,96876.60
2023-01-10T11:17:41.364Z,96878.25
2023-01-10T11:20:18.229Z,96888.21
2023-01-10T11:22:55.620Z,96895.24
2023-01-10T11:25:24.726Z,96899.92
2023-01-10T11:28:01.408Z,96899.13
2023-01-10T11:30:37.005Z,96903.23
2023-01-10T11:33:09.002Z,96908.69
2023-01-10T11:35:41.907Z,96905.15
2023-01-10T11:38:44.070Z,96905.55
2023-01-10T11:41:34.793Z,96903.26
2023-01-10T11:44:33.148Z,96905.02
2023-01-10T11:47:11.647Z,96899.88
2023-01-10T11:49:46.900Z,96899.81
2023-01-10T11:52:33.090Z,96900.52
2023-01-10T11:55:07.913Z,96906.46
2023-01-10T11:57:37.113Z,96905.12
2023-01-10T12:00:11.129Z,96902.51
2023-01-10T12:02:46.891Z,96905.98
2023-01-10T12:05:22.807Z,96906.45
2023-01-10T12:08:24.297Z,96905.59
2023-01-10T12:11:20.616Z,96899.42
2023-01-10T12:13:52.181Z,96896.65
2023-01-10T12:16:23.404Z,96903.94
2023-01-10T12:18:54.393Z,96904.17
2023-01-10T12:21:39.939Z,96901.96
2023-01-10T12:24:48.309Z,96902.11
2023-01-10T12:27:20.580Z,96913.58
2023-01-10T12:30:03.417Z,96915.10
2023-01-10T12:32:43.522Z,96914.70
2023-01-10T12:35:23.912Z,96911.08
2023-01-10T12:38:08.265Z,96911.78
2023-01-10T12:41:00.224Z,96907.98
2023-01-10T12:44:01.434Z,96909.81
2023-01-10T12:47:08.683Z,96909.19
2023-01-10T12:50:07.356Z,96914.90
2023-01-10T12:53:04.156Z,96920.27
2023-01-10T12:55:43.562Z,96927.02
2023-01-10T12:58:32.230Z,96933.27
2023-01-10T13:01:06.446Z,96937.94
2023-01-10T13:03:39.808Z,96944.59
2023-01-10T13:06:42.769Z,96945.54
2023-01-10T13:09:29.130Z,96944.14
2023-01-10T13:12:34.697Z,96942.55
2023-01-10T13:15:33.630Z,96943.67
2023-01-10T13:18:17.562Z,96946.04
2023-01-10T13:20:47.411Z,96952.23
2023-01-10T13:23:34.563Z,96953.27
2023-01-10T13:26:16.057Z,96957.38
2023-01-10T13:29:02.844Z,96959.59
2023-01-10T13:31:34.497Z,96959.75
2023-01-10T13:34:17.112Z,96962.92
2023-01-10T13:36:57.056Z,96966.93
2023-01-10T13:39:40.378Z,96969.91
2023-01-10T13:42:49.665Z,96969.52
2023-01-10T13:45:24.038Z,96969.21
